createdAt,value
2019-02-27T00:02:32.640Z,5.90
2019-02-27T00:05:20.076Z,6.30
2019-02-27T00:08:07.641Z,6.60
2019-02-27T00:10:55.120Z,6.57
2019-02-27T00:13:42.344Z,6.00
2019-02-27T00:16:29.661Z,6.30
2019-02-27T00:19:17.287Z,6.53
2019-02-27T00:22:06.078Z,6.57
2019-02-27T00:24:53.570Z,6.93
2019-02-27T00:27:41.198Z,7.00
2019-02-27T00:30:29.247Z,6.90
2019-02-27T00:33:16.775Z,6.70
2019-02-27T00:36:04.291Z,7.30
2019-02-27T00:38:51.307Z,6.13
2019-02-27T00:41:38.934Z,6.93
2019-02-27T00:44:26.051Z,6.43
2019-02-27T00:47:13.884Z,6.60
2019-02-27T00:50:05.808Z,6.70
2019-02-27T00:52:51.071Z,6.50
2019-02-27T00:55:39.523Z,6.80
2019-02-27T00:58:27.660Z,6.17
2019-02-27T01:01:15.204Z,6.53
2019-02-27T01:04:02.486Z,6.03
2019-02-27T01:06:49.749Z,6.77
2019-02-27T01:09:39.579Z,6.47
2019-02-27T01:12:26.862Z,6.83
2019-02-27T01:15:15.088Z,6.60
2019-02-27T01:18:02.103Z,6.60
2019-02-27T01:20:49.834Z,5.73
2019-02-27T01:23:37.362Z,6.00
2019-02-27T01:26:24.990Z,6.27
2019-02-27T01:29:12.215Z,7.40
2019-02-27T01:31:59.737Z,6.80
2019-02-27T01:34:47.261Z,6.30
2019-02-27T01:37:34.892Z,6.13
2019-02-27T01:40:22.829Z,6.40
2019-02-27T01:43:10.150Z,6.80
2019-02-27T01:45:57.574Z,6.83
2019-02-27T01:48:45.415Z,7.50
2019-02-27T01:51:32.664Z,7.37
2019-02-27T01:54:20.256Z,6.83
2019-02-27T01:57:07.785Z,7.57
2019-02-27T01:59:55.208Z,7.07
2019-02-27T02:02:42.632Z,7.17
2019-02-27T02:05:29.854Z,7.37
2019-02-27T02:08:18.197Z,7.57
2019-02-27T02:11:05.829Z,6.77
2019-02-27T02:14:12.696Z,7.40
2019-02-27T02:17:07.472Z,7.07
2019-02-27T02:20:17.251Z,7.67
2019-02-27T02:23:29.351Z,6.90
2019-02-27T02:26:35.635Z,7.40
2019-02-27T02:29:41.171Z,7.20
2019-02-27T02:32:52.379Z,6.97
2019-02-27T02:35:51.195Z,7.10
2019-02-27T02:39:10.817Z,6.87
2019-02-27T02:42:04.160Z,6.90
2019-02-27T02:45:11.369Z,7.83
2019-02-27T02:48:19.994Z,7.97
2019-02-27T02:51:29.945Z,7.53
2019-02-27T02:54:23.965Z,7.30
2019-02-27T02:57:35.896Z,7.43
2019-02-27T03:00:48.025Z,7.10
2019-02-27T03:03:44.275Z,6.43
2019-02-27T03:06:44.173Z,7.07
2019-02-27T03:09:40.806Z,6.83
2019-02-27T03:12:36.945Z,6.57
2019-02-27T03:15:33.802Z,7.00
2019-02-27T03:18:30.478Z,6.77
2019-02-27T03:21:35.666Z,7.30
2019-02-27T03:24:48.792Z,6.77
2019-02-27T03:27:48.303Z,7.23
2019-02-27T03:30:47.708Z,6.87
2019-02-27T03:34:05.457Z,6.97
2019-02-27T03:37:14.183Z,7.10
2019-02-27T03:40:20.429Z,7.03
2019-02-27T03:43:30.890Z,7.20
2019-02-27T03:46:40.771Z,6.67
2019-02-27T03:49:45.263Z,6.90
2019-02-27T03:52:41.598Z,7.00
2019-02-27T03:55:37.940Z,7.53
2019-02-27T03:58:31.817Z,7.90
2019-02-27T04:01:34.797Z,8.77
2019-02-27T04:04:34.614Z,8.10
2019-02-27T04:07:47.993Z,8.17
2019-02-27T04:10:35.853Z,7.80
2019-02-27T04:13:26.396Z,8.67
2019-02-27T04:16:12.264Z,9.60
2019-02-27T04:19:02.726Z,8.57
2019-02-27T04:21:48.850Z,8.67
2019-02-27T04:24:36.187Z,7.90
2019-02-27T04:27:23.495Z,9.23
2019-02-27T04:30:14.809Z,8.47
2019-02-27T04:32:59.982Z,7.90
2019-02-27T04:35:47.609Z,8.50
2019-02-27T04:38:35.032Z,8.50
2019-02-27T04:41:22.463Z,8.30
2019-02-27T04:44:10.395Z,8.20
2019-02-27T04:46:57.712Z,7.40
2019-02-27T04:49:45.240Z,8.37
2019-02-27T04:52:32.870Z,7.67
2019-02-27T04:55:20.089Z,7.97
2019-02-27T04:58:09.009Z,8.53
2019-02-27T05:00:59.181Z,9.13
2019-02-27T05:03:45.230Z,8.50
2019-02-27T05:06:32.654Z,8.13
2019-02-27T05:09:20.282Z,8.43
2019-02-27T05:12:08.115Z,8.60
2019-02-27T05:14:55.743Z,7.53
2019-02-27T05:17:43.166Z,7.80
2019-02-27T05:20:31.006Z,7.90
2019-02-27T05:23:18.323Z,8.37
2019-02-27T05:26:06.156Z,8.20
2019-02-27T05:28:53.587Z,7.77
2019-02-27T05:31:41.211Z,8.40
2019-02-27T05:34:28.531Z,7.73
2019-02-27T05:37:15.981Z,8.20
2019-02-27T05:40:04.977Z,7.70
2019-02-27T05:42:52.341Z,7.53
2019-02-27T05:45:39.968Z,7.80
2019-02-27T05:48:27.617Z,7.50
2019-02-27T05:51:15.021Z,7.03
2019-02-27T05:54:02.641Z,7.27
2019-02-27T05:56:50.586Z,7.27
2019-02-27T05:59:37.908Z,7.27
2019-02-27T06:02:25.585Z,7.47
2019-02-27T06:05:13.390Z,7.63
2019-02-27T06:08:02.238Z,7.77
2019-02-27T06:10:49.552Z,7.30
2019-02-27T06:13:37.331Z,7.97
2019-02-27T06:16:25.019Z,7.90
2019-02-27T06:19:13.460Z,8.37
2019-02-27T06:22:00.804Z,7.97
2019-02-27T06:24:48.411Z,8.03
2019-02-27T06:27:37.162Z,8.27
2019-02-27T06:30:24.895Z,7.40
2019-02-27T06:33:12.433Z,7.70
2019-02-27T06:35:59.950Z,7.60
2019-02-27T06:38:47.786Z,7.50
2019-02-27T06:41:35.007Z,7.40
2019-02-27T06:44:22.736Z,6.73
2019-02-27T06:47:09.751Z,7.40
2019-02-27T06:49:57.275Z,6.70
2019-02-27T06:52:45.106Z,6.53
2019-02-27T06:55:33.834Z,6.97
2019-02-27T06:58:21.286Z,6.87
2019-02-27T07:01:09.669Z,6.60
2019-02-27T07:03:57.468Z,7.07
2019-02-27T07:06:44.582Z,6.70
2019-02-27T07:09:32.212Z,7.37
2019-02-27T07:12:21.908Z,7.60
2019-02-27T07:15:17.618Z,9.63
2019-02-27T07:18:06.075Z,7.60
2019-02-27T07:20:55.680Z,7.47
2019-02-27T07:23:43.948Z,8.10
2019-02-27T07:26:31.195Z,7.70
2019-02-27T07:29:21.753Z,8.53
2019-02-27T07:32:07.583Z,8.53
2019-02-27T07:34:55.107Z,7.87
2019-02-27T07:37:46.837Z,8.17
2019-02-27T07:40:32.024Z,8.37
2019-02-27T07:43:19.837Z,8.20
2019-02-27T07:46:07.362Z,8.43
2019-02-27T07:48:56.700Z,7.97
2019-02-27T07:51:43.850Z,6.83
2019-02-27T07:54:31.488Z,7.00
2019-02-27T07:57:19.001Z,6.93
2019-02-27T08:00:21.991Z,6.40
2019-02-27T08:03:12.951Z,6.43
2019-02-27T08:05:59.822Z,6.40
2019-02-27T08:08:48.768Z,6.13
2019-02-27T08:11:36.092Z,6.43
2019-02-27T08:14:23.513Z,6.40
2019-02-27T08:17:17.754Z,6.10
2019-02-27T08:19:59.894Z,6.63
2019-02-27T08:22:47.325Z,6.57
2019-02-27T08:25:34.747Z,6.10
2019-02-27T08:28:21.864Z,6.67
2019-02-27T08:31:09.290Z,8.10
2019-02-27T08:33:56.523Z,10.53
2019-02-27T08:36:44.142Z,9.10
2019-02-27T08:39:31.872Z,6.80
2019-02-27T08:42:19.193Z,6.97
2019-02-27T08:45:18.938Z,6.73
2019-02-27T08:47:58.115Z,6.60
2019-02-27T08:50:45.561Z,6.40
2019-02-27T08:53:34.447Z,6.23
2019-02-27T08:56:21.532Z,6.10
2019-02-27T08:59:08.758Z,6.77
2019-02-27T09:01:56.491Z,6.57
2019-02-27T09:04:45.411Z,6.30
2019-02-27T09:07:33.886Z,6.70
2019-02-27T09:10:28.103Z,6.73
2019-02-27T09:13:15.146Z,6.77
2019-02-27T09:16:03.027Z,7.40
2019-02-27T09:18:50.553Z,6.77
2019-02-27T09:21:38.082Z,7.30
2019-02-27T09:24:26.396Z,6.90
2019-02-27T09:27:13.744Z,7.67
2019-02-27T09:30:02.686Z,7.10
2019-02-27T09:32:49.618Z,8.87
2019-02-27T09:35:38.768Z,8.90
2019-02-27T09:38:26.104Z,7.00
2019-02-27T09:41:13.845Z,7.40
2019-02-27T09:44:01.547Z,6.97
2019-02-27T09:46:49.911Z,17.57
2019-02-27T09:49:40.819Z,14.53
2019-02-27T09:52:27.868Z,7.83
2019-02-27T09:55:20.173Z,7.33
2019-02-27T09:58:10.068Z,7.30
2019-02-27T10:01:00.280Z,7.63
2019-02-27T10:03:47.771Z,7.07
2019-02-27T10:06:34.887Z,7.53
2019-02-27T10:09:22.620Z,9.67
2019-02-27T10:12:10.039Z,7.97
2019-02-27T10:14:57.361Z,8.20
2019-02-27T10:17:45.401Z,7.43
2019-02-27T10:20:36.826Z,7.50
2019-02-27T10:23:21.989Z,7.60
2019-02-27T10:26:09.927Z,7.60
2019-02-27T10:28:57.369Z,7.77
2019-02-27T10:31:45.081Z,7.77
2019-02-27T10:34:32.402Z,7.43
2019-02-27T10:37:20.302Z,7.60
2019-02-27T10:40:25.075Z,8.00
2019-02-27T10:43:12.392Z,7.67
2019-02-27T10:45:59.814Z,8.27
2019-02-27T10:48:47.657Z,8.20
2019-02-27T10:51:34.872Z,7.60
2019-02-27T10:54:22.188Z,7.80
2019-02-27T10:57:09.716Z,7.93
2019-02-27T10:59:57.035Z,8.13
2019-02-27T11:02:47.451Z,7.93
2019-02-27T11:05:38.648Z,8.07
2019-02-27T11:08:28.894Z,7.67
2019-02-27T11:11:16.283Z,8.00
2019-02-27T11:14:03.374Z,7.90
2019-02-27T11:16:51.106Z,7.60
2019-02-27T11:19:38.221Z,8.00
2019-02-27T11:22:25.755Z,7.47
2019-02-27T11:25:15.994Z,7.73
2019-02-27T11:28:03.460Z,7.77
2019-02-27T11:30:51.133Z,7.20
2019-02-27T11:33:39.131Z,7.50
2019-02-27T11:36:26.249Z,7.57
2019-02-27T11:39:13.882Z,7.87
2019-02-27T11:42:01.089Z,7.92
2019-02-27T11:44:49.622Z,7.80
2019-02-27T11:47:37.380Z,6.97
2019-02-27T11:50:25.107Z,7.22
2019-02-27T11:53:13.052Z,7.10
2019-02-27T11:56:00.675Z,7.90
2019-02-27T11:58:48.715Z,7.90
2019-02-27T12:01:36.446Z,7.45
2019-02-27T12:04:23.564Z,7.22
2019-02-27T12:07:12.308Z,7.00
2019-02-27T12:09:59.847Z,7.00
2019-02-27T12:12:46.970Z,6.37
2019-02-27T12:15:34.385Z,6.45
2019-02-27T12:18:23.642Z,6.90
2019-02-27T12:21:11.486Z,7.10
2019-02-27T12:23:58.805Z,6.25
2019-02-27T12:26:46.536Z,6.50
2019-02-27T12:29:33.873Z,6.03
2019-02-27T12:32:21.927Z,5.53
2019-02-27T12:35:12.997Z,5.20
2019-02-27T12:38:00.441Z,5.15
2019-02-27T12:40:48.079Z,4.55
2019-02-27T12:43:35.412Z,4.85
2019-02-27T12:46:23.013Z,4.50
2019-02-27T12:49:10.848Z,4.87
2019-02-27T12:51:58.581Z,4.70
2019-02-27T12:54:48.364Z,4.70
2019-02-27T12:57:35.272Z,4.45
2019-02-27T13:00:25.767Z,4.50
2019-02-27T13:03:12.882Z,4.50
2019-02-27T13:06:00.976Z,4.50
2019-02-27T13:08:52.607Z,4.12
2019-02-27T13:11:39.122Z,4.83
2019-02-27T13:14:27.394Z,4.55
2019-02-27T13:17:15.037Z,4.17
2019-02-27T13:20:03.233Z,4.00
2019-02-27T13:22:50.994Z,4.28
2019-02-27T13:25:38.115Z,3.80
2019-02-27T13:28:25.441Z,3.77
2019-02-27T13:31:13.676Z,3.77
2019-02-27T13:34:01.722Z,3.67
2019-02-27T13:36:49.143Z,3.40
2019-02-27T13:39:36.977Z,4.20
2019-02-27T13:42:24.296Z,3.80
2019-02-27T13:45:20.393Z,3.85
2019-02-27T13:48:07.953Z,3.62
2019-02-27T13:50:56.625Z,3.42
2019-02-27T13:53:44.896Z,3.10
2019-02-27T13:56:33.499Z,2.80
2019-02-27T13:59:20.516Z,2.80
2019-02-27T14:02:08.458Z,2.87
2019-02-27T14:04:57.294Z,3.02
2019-02-27T14:07:45.347Z,3.10
2019-02-27T14:10:34.228Z,3.40
2019-02-27T14:13:21.532Z,3.58
2019-02-27T14:16:08.964Z,4.15
2019-02-27T14:18:56.687Z,3.20
2019-02-27T14:21:44.213Z,3.22
2019-02-27T14:24:31.232Z,3.12
2019-02-27T14:27:18.546Z,3.50
2019-02-27T14:30:12.219Z,3.47
2019-02-27T14:32:59.746Z,2.80
2019-02-27T14:35:47.577Z,2.67
2019-02-27T14:38:34.899Z,2.62
2019-02-27T14:41:22.223Z,2.40
2019-02-27T14:44:09.547Z,2.62
2019-02-27T14:46:57.283Z,2.37
2019-02-27T14:49:44.600Z,2.25
2019-02-27T14:52:32.225Z,2.30
2019-02-27T14:55:20.731Z,2.40
2019-02-27T14:58:08.099Z,2.55
2019-02-27T15:00:55.835Z,2.47
2019-02-27T15:03:43.370Z,2.50
2019-02-27T15:06:30.883Z,3.10
2019-02-27T15:09:18.298Z,3.70
2019-02-27T15:12:06.052Z,3.95
2019-02-27T15:14:55.363Z,3.42
2019-02-27T15:17:42.732Z,3.98
2019-02-27T15:20:30.786Z,4.00
2019-02-27T15:23:17.888Z,3.85
2019-02-27T15:26:05.824Z,4.20
2019-02-27T15:28:53.350Z,5.00
2019-02-27T15:31:40.877Z,4.67
2019-02-27T15:34:28.611Z,4.65
2019-02-27T15:37:16.238Z,3.62
2019-02-27T15:40:05.506Z,3.50
2019-02-27T15:42:52.831Z,3.67
2019-02-27T15:45:47.589Z,3.40
2019-02-27T15:48:28.802Z,3.65
2019-02-27T15:51:15.939Z,3.33
2019-02-27T15:54:03.603Z,3.35
2019-02-27T15:56:50.881Z,3.67
2019-02-27T15:59:41.748Z,3.05
2019-02-27T16:02:29.200Z,3.27
2019-02-27T16:05:16.524Z,3.60
2019-02-27T16:08:03.654Z,3.83
2019-02-27T16:10:54.734Z,3.47
2019-02-27T16:13:40.329Z,3.57
2019-02-27T16:16:27.448Z,3.60
2019-02-27T16:19:14.567Z,3.90
2019-02-27T16:22:02.297Z,4.27
2019-02-27T16:24:50.028Z,4.43
2019-02-27T16:27:38.758Z,4.70
2019-02-27T16:30:37.205Z,4.53
2019-02-27T16:33:24.710Z,5.40
2019-02-27T16:36:12.913Z,5.63
2019-02-27T16:39:07.013Z,4.73
2019-02-27T16:41:50.141Z,4.20
2019-02-27T16:44:37.359Z,3.90
2019-02-27T16:47:24.886Z,3.80
2019-02-27T16:50:17.942Z,4.07
2019-02-27T16:53:05.469Z,4.27
2019-02-27T16:55:52.996Z,4.70
2019-02-27T16:58:40.420Z,4.10
2019-02-27T17:01:29.522Z,4.40
2019-02-27T17:04:16.908Z,4.60
2019-02-27T17:07:04.471Z,4.37
2019-02-27T17:09:51.450Z,4.43
2019-02-27T17:12:40.851Z,4.80
2019-02-27T17:15:28.045Z,4.70
2019-02-27T17:18:15.261Z,4.10
2019-02-27T17:21:03.091Z,4.23
2019-02-27T17:23:50.514Z,4.30
2019-02-27T17:26:39.159Z,5.60
2019-02-27T17:29:26.807Z,6.90
2019-02-27T17:32:14.328Z,7.20
2019-02-27T17:35:01.447Z,8.10
2019-02-27T17:37:49.264Z,7.90
2019-02-27T17:40:37.510Z,8.33
2019-02-27T17:43:28.526Z,7.67
2019-02-27T17:46:14.005Z,7.23
2019-02-27T17:49:01.134Z,6.47
2019-02-27T17:51:49.566Z,6.57
2019-02-27T17:54:37.404Z,8.20
2019-02-27T17:57:25.244Z,8.37
2019-02-27T18:00:44.321Z,9.03
2019-02-27T18:03:31.941Z,11.37
2019-02-27T18:06:19.156Z,9.13
2019-02-27T18:09:07.244Z,15.50
2019-02-27T18:11:54.444Z,20.70
2019-02-27T18:14:45.569Z,23.10
2019-02-27T18:17:34.674Z,15.73
2019-02-27T18:20:24.404Z,10.37
2019-02-27T18:23:09.539Z,9.60
2019-02-27T18:25:56.656Z,9.33
2019-02-27T18:28:44.283Z,8.50
2019-02-27T18:31:32.117Z,8.77
2019-02-27T18:34:21.597Z,9.40
2019-02-27T18:37:08.400Z,12.57
2019-02-27T18:39:55.822Z,9.90
2019-02-27T18:42:43.774Z,10.40
2019-02-27T18:45:30.775Z,9.77
2019-02-27T18:48:18.317Z,7.30
2019-02-27T18:51:05.738Z,6.70
2019-02-27T18:53:53.363Z,6.90
2019-02-27T18:56:40.882Z,6.37
2019-02-27T18:59:29.657Z,5.93
2019-02-27T19:02:20.602Z,6.23
2019-02-27T19:05:08.445Z,6.50
2019-02-27T19:07:56.110Z,6.17
2019-02-27T19:10:43.736Z,5.63
2019-02-27T19:13:31.780Z,6.37
2019-02-27T19:16:20.729Z,6.13
2019-02-27T19:19:08.874Z,6.43
2019-02-27T19:21:56.404Z,6.20
2019-02-27T19:24:44.337Z,5.80
2019-02-27T19:27:31.867Z,6.07
2019-02-27T19:30:20.415Z,6.80
2019-02-27T19:33:08.340Z,6.50
2019-02-27T19:35:56.501Z,6.27
2019-02-27T19:38:47.560Z,6.40
2019-02-27T19:41:38.746Z,5.93
2019-02-27T19:44:22.864Z,6.57
2019-02-27T19:47:10.211Z,6.30
2019-02-27T19:49:57.418Z,6.20
2019-02-27T19:52:44.928Z,5.87
2019-02-27T19:55:32.865Z,6.30
2019-02-27T19:58:20.391Z,6.37
2019-02-27T20:01:09.763Z,9.70
2019-02-27T20:03:57.601Z,11.60
2019-02-27T20:06:44.714Z,11.37
2019-02-27T20:09:32.234Z,10.17
2019-02-27T20:12:19.765Z,7.43
2019-02-27T20:15:11.028Z,7.50
2019-02-27T20:17:59.427Z,7.03
2019-02-27T20:20:46.954Z,6.97
2019-02-27T20:23:34.379Z,7.30
2019-02-27T20:26:21.701Z,7.20
2019-02-27T20:29:08.824Z,7.13
2019-02-27T20:31:55.733Z,7.00
2019-02-27T20:34:45.919Z,7.20
2019-02-27T20:37:37.149Z,6.87
2019-02-27T20:40:23.839Z,6.47
2019-02-27T20:43:11.366Z,5.93
2019-02-27T20:45:59.003Z,14.63
2019-02-27T20:48:46.419Z,6.47
2019-02-27T20:51:33.638Z,5.97
2019-02-27T20:54:20.741Z,5.50
2019-02-27T20:57:08.946Z,5.90
2019-02-27T21:00:00.525Z,5.60
2019-02-27T21:02:44.974Z,5.73
2019-02-27T21:05:32.992Z,6.27
2019-02-27T21:08:20.231Z,7.30
2019-02-27T21:11:08.679Z,6.80
2019-02-27T21:13:55.591Z,6.83
2019-02-27T21:16:45.641Z,6.17
2019-02-27T21:19:33.885Z,6.17
2019-02-27T21:22:21.448Z,6.10
2019-02-27T21:25:12.046Z,6.23
2019-02-27T21:28:00.292Z,6.37
2019-02-27T21:30:51.782Z,6.07
2019-02-27T21:33:36.674Z,5.83
2019-02-27T21:36:24.144Z,6.30
2019-02-27T21:39:11.529Z,5.83
2019-02-27T21:41:59.053Z,6.17
2019-02-27T21:44:46.478Z,6.70
2019-02-27T21:47:34.702Z,6.67
2019-02-27T21:50:23.889Z,6.73
2019-02-27T21:53:11.428Z,6.50
2019-02-27T21:55:59.038Z,6.30
2019-02-27T21:58:47.600Z,6.13
2019-02-27T22:01:35.021Z,6.40
2019-02-27T22:04:22.848Z,6.80
2019-02-27T22:07:10.679Z,6.53
2019-02-27T22:09:57.903Z,6.53
2019-02-27T22:12:45.324Z,6.57
2019-02-27T22:15:32.852Z,6.60
2019-02-27T22:18:20.278Z,6.00
2019-02-27T22:21:07.596Z,6.37
2019-02-27T22:23:55.331Z,6.70
2019-02-27T22:26:42.343Z,6.73
2019-02-27T22:29:30.382Z,6.60
2019-02-27T22:32:17.806Z,6.50
2019-02-27T22:35:06.304Z,6.80
2019-02-27T22:37:53.675Z,6.23
2019-02-27T22:40:41.305Z,6.53
2019-02-27T22:43:28.836Z,6.27
2019-02-27T22:46:16.451Z,6.93
2019-02-27T22:49:04.402Z,6.43
2019-02-27T22:51:51.825Z,6.33
2019-02-27T22:54:39.246Z,7.23
2019-02-27T22:57:26.978Z,6.03
2019-02-27T23:00:42.965Z,6.10
2019-02-27T23:03:35.414Z,6.10
2019-02-27T23:06:22.838Z,6.07
2019-02-27T23:09:11.578Z,6.20
2019-02-27T23:11:59.222Z,6.33
2019-02-27T23:14:47.059Z,6.73
2019-02-27T23:17:34.787Z,6.27
2019-02-27T23:20:21.905Z,6.10
2019-02-27T23:23:09.123Z,6.70
2019-02-27T23:25:56.445Z,6.13
2019-02-27T23:28:44.074Z,6.60
2019-02-27T23:31:32.609Z,6.63
2019-02-27T23:34:19.947Z,6.37
2019-02-27T23:37:06.959Z,5.97
2019-02-27T23:39:54.399Z,6.50
2019-02-27T23:42:42.218Z,6.47
2019-02-27T23:45:29.235Z,6.53
2019-02-27T23:48:16.762Z,6.33
2019-02-27T23:51:04.798Z,6.63
2019-02-27T23:53:52.328Z,6.47
2019-02-27T23:56:39.859Z,6.60
2019-02-27T23:59:26.972Z,6.80
